Time;durP1;ratioP1;P1;durP2;ratioP2;P2;SDS_P1;SDS_P2;PMS_P1;PMS_P2;Temp;Humidity;BMP_temperature;BMP_pressure;BME280_temperature;BME280_humidity;BME280_pressure;Samples;Min_cycle;Max_cycle;Signal;HPM_P1;HPM_P2
2022/06/19 00:00:25;;;;;;;;;;;;;;;21.04;100.00;95531.13;1023651;29;19907;-73
2022/06/19 00:00:55;;;;;;;;;;;;;;;21.01;100.00;95526.44;1019816;28;19911;-71
2022/06/19 00:01:26;;;;;;;;;;;;;;;21.00;100.00;95524.13;1027754;28;19924;-72
2022/06/19 00:01:56;;;;;;;;;;;;;;;21.04;100.00;95523.09;1035522;28;19910;-71
2022/06/19 00:02:26;;;;;;;;;;;;;;;21.00;100.00;95522.22;1035143;28;19926;-72
2022/06/19 00:02:57;;;;;;;;;;;;;;;21.01;100.00;95523.00;1035611;28;19988;-71
2022/06/19 00:03:38;;;;;;;;;;;;;;;21.02;100.00;95519.22;1035775;28;19968;-72
2022/06/19 00:04:09;;;;;;;;;;;;;;;21.04;100.00;95525.00;1032881;28;19910;-71
2022/06/19 00:04:39;;;;;;;;;;;;;;;21.05;100.00;95526.56;1029028;28;20419;-72
2022/06/19 00:05:10;;;;;;;;;;;;;;;21.04;100.00;95525.00;1027646;28;20341;-70
2022/06/19 00:05:40;;;;;;;;;;;;;;;21.04;100.00;95527.66;1027661;28;20383;-71
2022/06/19 00:06:11;;;;;;;;;;;;;;;21.04;100.00;95527.66;1023722;28;19910;-72
2022/06/19 00:06:41;;;;;;;;;;;;;;;20.99;100.00;95522.53;1027475;28;19910;-73
2022/06/19 00:07:11;;;;;;;;;;;;;;;20.99;100.00;95520.66;1021188;29;19954;-72
2022/06/19 00:07:42;;;;;;;;;;;;;;;21.02;100.00;95524.53;1019720;29;19922;-71
2022/06/19 00:08:12;;;;;;;;;;;;;;;21.04;100.00;95517.78;1025497;28;19914;-71
2022/06/19 00:08:43;;;;;;;;;;;;;;;21.04;100.00;95527.66;1031696;28;19914;-70
2022/06/19 00:09:13;;;;;;;;;;;;;;;21.09;100.00;95516.75;1035575;28;19910;-72
2022/06/19 00:09:43;;;;;;;;;;;;;;;21.09;100.00;95514.09;1030125;28;19933;-71
2022/06/19 00:10:14;;;;;;;;;;;;;;;21.09;100.00;95514.09;1023465;29;19947;-71
2022/06/19 00:10:44;;;;;;;;;;;;;;;21.07;100.00;95513.66;1023535;29;19958;-72
2022/06/19 00:11:15;;;;;;;;;;;;;;;21.08;100.00;95517.88;1019472;29;19918;-72
2022/06/19 00:11:46;;;;;;;;;;;;;;;21.08;100.00;95507.22;1026835;28;19922;-72
2022/06/19 00:12:17;;;;;;;;;;;;;;;21.09;100.00;95506.09;1026816;28;20341;-72
2022/06/19 00:12:48;;;;;;;;;;;;;;;21.14;100.00;95511.22;1023916;28;19906;-72
2022/06/19 00:13:18;;;;;;;;;;;;;;;21.15;100.00;95508.19;1028076;28;19922;-72
2022/06/19 00:13:49;;;;;;;;;;;;;;;21.15;100.00;95502.09;1031773;28;20566;-70
2022/06/19 00:14:19;;;;;;;;;;;;;;;21.13;100.00;95499.75;1031859;28;20478;-72
2022/06/19 00:14:49;;;;;;;;;;;;;;;21.14;100.00;95505.88;1027009;28;20003;-72
2022/06/19 00:15:20;;;;;;;;;;;;;;;21.11;100.00;95501.97;1023586;28;19925;-71
2022/06/19 00:15:50;;;;;;;;;;;;;;;21.09;100.00;95498.88;1019403;29;19918;-71
2022/06/19 00:16:20;;;;;;;;;;;;;;;21.10;100.00;95497.75;1023644;29;19914;-72
2022/06/19 00:16:50;;;;;;;;;;;;;;;21.09;100.00;95495.41;1031259;28;19949;-71
2022/06/19 00:17:21;;;;;;;;;;;;;;;21.07;100.00;95490.44;1031639;28;20395;-72
2022/06/19 00:17:51;;;;;;;;;;;;;;;21.05;100.00;95495.31;1031455;28;20426;-72
2022/06/19 00:18:21;;;;;;;;;;;;;;;21.11;100.00;95495.88;1031597;28;20319;-73
2022/06/19 00:18:52;;;;;;;;;;;;;;;21.11;100.00;95495.88;1031337;28;20411;-72
2022/06/19 00:19:22;;;;;;;;;;;;;;;21.11;100.00;95496.63;1035749;28;19945;-71
2022/06/19 00:19:53;;;;;;;;;;;;;;;21.10;100.00;95497.75;1035294;28;19914;-72
2022/06/19 00:20:23;;;;;;;;;;;;;;;21.11;100.00;95496.63;1031098;28;19914;-71
2022/06/19 00:20:54;;;;;;;;;;;;;;;21.07;100.00;95495.00;1031410;28;20184;-72
2022/06/19 00:21:25;;;;;;;;;;;;;;;21.04;100.00;95493.75;1027482;28;19942;-71
2022/06/19 00:21:55;;;;;;;;;;;;;;;21.06;100.00;95498.75;1023568;28;19915;-71
2022/06/19 00:22:29;;;;;;;;;;;;;;;21.06;100.00;95499.56;1030537;28;19917;-70
2022/06/19 00:22:59;;;;;;;;;;;;;;;21.05;100.00;95492.63;1031990;28;19980;-72
2022/06/19 00:23:29;;;;;;;;;;;;;;;21.03;100.00;95497.56;1036035;28;19916;-72
2022/06/19 00:24:00;;;;;;;;;;;;;;;21.03;100.00;95494.88;1035936;28;19926;-71
2022/06/19 00:24:30;;;;;;;;;;;;;;;21.00;100.00;95500.88;1039607;28;19917;-71
2022/06/19 00:25:00;;;;;;;;;;;;;;;20.98;100.00;95487.09;1031387;28;20272;-70
2022/06/19 00:25:31;;;;;;;;;;;;;;;21.00;100.00;95489.44;1031377;28;19914;-72
2022/06/19 00:26:01;;;;;;;;;;;;;;;20.99;100.00;95498.53;1031479;28;19921;-71
2022/06/19 00:26:31;;;;;;;;;;;;;;;20.99;100.00;95483.31;1031406;28;20327;-72
2022/06/19 00:27:02;;;;;;;;;;;;;;;20.99;100.00;95487.88;1027384;28;20009;-73
2022/06/19 00:27:35;;;;;;;;;;;;;;;20.98;100.00;95487.09;1023425;28;19917;-71
2022/06/19 00:28:06;;;;;;;;;;;;;;;20.98;100.00;95487.09;1024495;28;19914;-73
2022/06/19 00:28:36;;;;;;;;;;;;;;;20.94;100.00;95481.66;1032004;28;19968;-70
2022/06/19 00:29:06;;;;;;;;;;;;;;;20.91;100.00;95495.66;1031768;28;20120;-72
2022/06/19 00:29:37;;;;;;;;;;;;;;;20.92;100.00;95478.56;1035520;28;20048;-71
2022/06/19 00:30:08;;;;;;;;;;;;;;;20.98;100.00;95478.31;1031440;28;19910;-72
2022/06/19 00:30:38;;;;;;;;;;;;;;;20.99;100.00;95482.53;1031553;28;20388;-72
2022/06/19 00:31:09;;;;;;;;;;;;;;;21.08;100.00;95475.19;1035428;28;20268;-70
2022/06/19 00:31:39;;;;;;;;;;;;;;;21.06;100.00;95478.22;1034911;28;19921;-72
2022/06/19 00:32:09;;;;;;;;;;;;;;;21.09;100.00;95474.06;1038237;28;20275;-70
2022/06/19 00:32:40;;;;;;;;;;;;;;;21.10;100.00;95468.41;1039374;28;19913;-72
2022/06/19 00:33:10;;;;;;;;;;;;;;;21.13;100.00;95470.41;1039524;28;19956;-73
2022/06/19 00:33:41;;;;;;;;;;;;;;;21.18;100.00;95467.50;1039650;28;20337;-71
2022/06/19 00:34:11;;;;;;;;;;;;;;;21.16;100.00;95467.06;1037463;28;19913;-71
2022/06/19 00:34:41;;;;;;;;;;;;;;;21.13;100.00;95467.75;1035604;28;19913;-71
2022/06/19 00:35:12;;;;;;;;;;;;;;;21.14;100.00;95468.50;1035474;28;19941;-71
2022/06/19 00:35:42;;;;;;;;;;;;;;;21.10;100.00;95464.97;1031769;28;19968;-71
2022/06/19 00:36:12;;;;;;;;;;;;;;;21.09;100.00;95466.06;1035184;28;20268;-71
2022/06/19 00:36:45;;;;;;;;;;;;;;;21.06;100.00;95467.53;1031558;28;19924;-72
2022/06/19 00:37:15;;;;;;;;;;;;;;;21.02;100.00;95466.63;1031670;28;20020;-72
2022/06/19 00:37:46;;;;;;;;;;;;;;;21.01;100.00;95464.31;1035688;28;19925;-72
2022/06/19 00:38:16;;;;;;;;;;;;;;;20.98;100.00;95465.75;1031837;28;19996;-72
2022/06/19 00:38:50;;;;;;;;;;;;;;;21.03;100.00;95462.09;1035696;28;20361;-72
2022/06/19 00:39:21;;;;;;;;;;;;;;;20.97;100.00;95464.19;1031404;28;20387;-71
2022/06/19 00:39:52;;;;;;;;;;;;;;;20.99;100.00;95464.63;1032456;28;20126;-73
2022/06/19 00:40:23;;;;;;;;;;;;;;;21.01;100.00;95464.31;1039472;28;19932;-73
2022/06/19 00:40:54;;;;;;;;;;;;;;;21.05;100.00;95459.84;1039344;28;19921;-72
2022/06/19 00:41:25;;;;;;;;;;;;;;;21.04;100.00;95458.31;1035568;28;19913;-71
2022/06/19 00:41:55;;;;;;;;;;;;;;;21.02;100.00;95458.63;1035117;28;19968;-72
2022/06/19 00:42:26;;;;;;;;;;;;;;;20.98;100.00;95456.97;1035176;28;19929;-72
2022/06/19 00:42:57;;;;;;;;;;;;;;;21.00;100.00;95454.75;1039845;28;20331;-71
2022/06/19 00:43:28;;;;;;;;;;;;;;;20.93;100.00;95458.75;1044087;28;19916;-72
2022/06/19 00:43:59;;;;;;;;;;;;;;;20.94;100.00;95459.53;1039594;28;19924;-72
2022/06/19 00:44:30;;;;;;;;;;;;;;;20.89;100.00;95452.56;1039420;28;19983;-70
2022/06/19 00:45:00;;;;;;;;;;;;;;;20.89;100.00;95457.09;1039671;28;19921;-72
2022/06/19 00:45:34;;;;;;;;;;;;;;;20.85;100.00;95456.19;1039754;28;19913;-72
2022/06/19 00:46:24;;;;;;;;;;;;;;;20.85;100.00;95456.97;1043779;28;19956;-72
2022/06/19 00:47:00;;;;;;;;;;;;;;;20.74;100.00;95455.13;1043818;28;20001;-74
2022/06/19 00:47:35;;;;;;;;;;;;;;;20.74;100.00;95461.22;1039503;28;19916;-72
2022/06/19 00:48:15;;;;;;;;;;;;;;;20.66;100.00;95452.22;1027248;28;19922;-72
2022/06/19 00:48:46;;;;;;;;;;;;;;;20.62;100.00;95458.53;1027394;28;19922;-71
2022/06/19 00:49:18;;;;;;;;;;;;;;;20.63;100.00;95458.22;1029246;28;19918;-72
2022/06/19 00:49:56;;;;;;;;;;;;;;;20.58;100.00;95447.78;1032876;28;19918;-73
2022/06/19 00:50:28;;;;;;;;;;;;;;;20.55;100.00;95466.31;1027483;28;20431;-72
2022/06/19 00:51:02;;;;;;;;;;;;;;;20.51;100.00;95457.44;1023463;29;19918;-72
2022/06/19 00:51:32;;;;;;;;;;;;;;;20.46;100.00;95458.41;1025079;28;19914;-73
2022/06/19 00:52:21;;;;;;;;;;;;;;;20.47;100.00;95463.41;1028070;28;20522;-72
2022/06/19 00:52:51;;;;;;;;;;;;;;;20.44;100.00;95457.97;1031234;28;20429;-72
2022/06/19 00:53:26;;;;;;;;;;;;;;;20.42;100.00;95468.16;1031468;28;19921;-72
2022/06/19 00:53:57;;;;;;;;;;;;;;;20.38;100.00;95459.28;1026348;28;19994;-74
2022/06/19 00:54:27;;;;;;;;;;;;;;;20.34;100.00;95463.72;1027659;28;20351;-72
2022/06/19 00:55:17;;;;;;;;;;;;;;;20.31;100.00;95467.06;1023285;29;20057;-72
2022/06/19 00:55:49;;;;;;;;;;;;;;;20.29;100.00;95463.94;1021951;29;19922;-74
2022/06/19 00:56:19;;;;;;;;;;;;;;;20.25;100.00;95466.47;1023110;28;20406;-72
2022/06/19 00:56:50;;;;;;;;;;;;;;;20.29;100.00;95462.06;1024934;28;19922;-74
2022/06/19 00:57:20;;;;;;;;;;;;;;;20.25;100.00;95458.47;1027326;28;19914;-71
2022/06/19 00:57:54;;;;;;;;;;;;;;;20.26;100.00;95457.41;1023314;28;20283;-73
2022/06/19 00:58:25;;;;;;;;;;;;;;;20.24;100.00;95460.38;1027662;28;19966;-72
2022/06/19 00:58:56;;;;;;;;;;;;;;;20.22;100.00;95456.47;1031347;28;19949;-73
2022/06/19 00:59:26;;;;;;;;;;;;;;;20.20;100.00;95448.84;1031944;28;19910;-73
2022/06/19 01:00:00;;;;;;;;;;;;;;;20.18;100.00;95444.94;1031232;28;20427;-72
2022/06/19 01:00:30;;;;;;;;;;;;;;;20.17;100.00;95444.16;1027168;28;19973;-72
2022/06/19 01:01:02;;;;;;;;;;;;;;;20.15;100.00;95440.25;1028007;28;20084;-72
2022/06/19 01:01:33;;;;;;;;;;;;;;;20.15;100.00;95448.25;1031088;28;19910;-72
2022/06/19 01:02:03;;;;;;;;;;;;;;;20.13;100.00;95450.50;1023121;28;19911;-72
2022/06/19 01:02:33;;;;;;;;;;;;;;;20.12;100.00;95446.25;1026965;28;19914;-71
2022/06/19 01:03:08;;;;;;;;;;;;;;;20.16;100.00;95442.63;1027282;28;19918;-72
2022/06/19 01:03:46;;;;;;;;;;;;;;;20.11;100.00;95442.03;1028631;28;19961;-72
2022/06/19 01:04:16;;;;;;;;;;;;;;;20.10;100.00;95440.50;1031382;28;19933;-72
2022/06/19 01:04:48;;;;;;;;;;;;;;;20.07;100.00;95441.16;1034686;28;20402;-72
2022/06/19 01:05:18;;;;;;;;;;;;;;;20.06;100.00;95440.38;1039535;28;19945;-72
2022/06/19 01:05:49;;;;;;;;;;;;;;;20.07;100.00;95439.25;1031675;28;19914;-71
2022/06/19 01:06:20;;;;;;;;;;;;;;;20.02;100.00;95431.50;1035145;28;19926;-71
2022/06/19 01:06:50;;;;;;;;;;;;;;;20.00;100.00;95439.03;1031280;28;20362;-72
2022/06/19 01:07:22;;;;;;;;;;;;;;;20.00;100.00;95434.47;1024046;28;20379;-72
2022/06/19 01:07:52;;;;;;;;;;;;;;;19.97;100.00;95435.13;1023520;28;19914;-72
2022/06/19 01:08:23;;;;;;;;;;;;;;;19.97;100.00;95434.34;1023415;28;19938;-72
2022/06/19 01:08:55;;;;;;;;;;;;;;;19.94;100.00;95427.81;1027593;28;19945;-71
2022/06/19 01:09:26;;;;;;;;;;;;;;;19.93;100.00;95431.56;1027667;28;20000;-72
2022/06/19 01:09:56;;;;;;;;;;;;;;;19.90;100.00;95432.22;1027401;28;19918;-72
2022/06/19 01:10:26;;;;;;;;;;;;;;;19.91;100.00;95428.47;1031408;28;19914;-71
2022/06/19 01:10:57;;;;;;;;;;;;;;;19.86;100.00;95428.69;1031359;28;19914;-72
2022/06/19 01:11:30;;;;;;;;;;;;;;;19.85;100.00;95421.00;1032129;28;19913;-71
2022/06/19 01:12:01;;;;;;;;;;;;;;;19.84;100.00;95420.22;1035066;28;19941;-71
2022/06/19 01:12:31;;;;;;;;;;;;;;;19.82;100.00;95422.47;1031058;28;19971;-71
2022/06/19 01:13:04;;;;;;;;;;;;;;;19.82;100.00;95427.00;1027939;28;20431;-72
2022/06/19 01:13:36;;;;;;;;;;;;;;;19.76;100.00;95418.44;1031888;28;20429;-71
2022/06/19 01:14:09;;;;;;;;;;;;;;;19.75;100.00;95425.66;1032123;28;19918;-71
2022/06/19 01:14:40;;;;;;;;;;;;;;;19.75;100.00;95422.19;1032290;28;20020;-72
2022/06/19 01:15:11;;;;;;;;;;;;;;;19.74;100.00;95420.66;1030940;28;19993;-72
2022/06/19 01:15:41;;;;;;;;;;;;;;;19.73;100.00;95414.56;1028055;28;20340;-71
2022/06/19 01:16:11;;;;;;;;;;;;;;;19.73;100.00;95417.22;1027599;28;20008;-72
2022/06/19 01:16:42;;;;;;;;;;;;;;;19.75;100.00;95416.88;1027243;28;19914;-73
2022/06/19 01:17:12;;;;;;;;;;;;;;;19.80;100.00;95416.69;1027214;28;20333;-72
2022/06/19 01:17:42;;;;;;;;;;;;;;;19.78;100.00;95416.22;1031367;28;20543;-72
2022/06/19 01:18:13;;;;;;;;;;;;;;;19.87;100.00;95414.25;1031226;28;19917;-71
2022/06/19 01:18:43;;;;;;;;;;;;;;;19.89;100.00;95409.38;1027390;28;19921;-72
2022/06/19 01:19:15;;;;;;;;;;;;;;;19.87;100.00;95414.25;1027240;28;20319;-71
2022/06/19 01:19:46;;;;;;;;;;;;;;;19.91;100.00;95409.03;1031641;28;20025;-72
2022/06/19 01:20:16;;;;;;;;;;;;;;;19.86;100.00;95412.69;1031553;28;19921;-71
2022/06/19 01:20:47;;;;;;;;;;;;;;;19.91;100.00;95414.38;1027683;28;19918;-71
2022/06/19 01:21:17;;;;;;;;;;;;;;;19.98;100.00;95411.94;1027219;28;20001;-73
2022/06/19 01:21:48;;;;;;;;;;;;;;;19.95;100.00;95409.94;1031449;28;20070;-74
2022/06/19 01:22:24;;;;;;;;;;;;;;;19.95;100.00;95410.72;1030656;28;19918;-71
2022/06/19 01:23:01;;;;;;;;;;;;;;;19.94;100.00;95405.72;1028121;28;20403;-72
2022/06/19 01:23:40;;;;;;;;;;;;;;;19.96;100.00;95404.28;1031080;28;20359;-70
2022/06/19 01:24:14;;;;;;;;;;;;;;;19.91;100.00;95404.50;1023174;29;19919;-72
2022/06/19 01:25:01;;;;;;;;;;;;;;;19.89;100.00;95404.06;1024206;28;19937;-72
2022/06/19 01:25:32;;;;;;;;;;;;;;;19.91;100.00;95406.38;1027053;28;19926;-71
2022/06/19 01:26:02;;;;;;;;;;;;;;;19.89;100.00;95400.63;1028822;28;19973;-71
2022/06/19 01:26:36;;;;;;;;;;;;;;;19.86;100.00;95402.06;1033501;28;19973;-68
2022/06/19 01:27:07;;;;;;;;;;;;;;;19.86;100.00;95407.38;1027449;28;19969;-73
2022/06/19 01:28:54;;;;;;;;;;;;;;;19.83;100.00;95397.38;1019388;29;19982;-71
2022/06/19 01:29:24;;;;;;;;;;;;;;;19.80;100.00;95394.59;1023423;28;19923;-73
2022/06/19 01:29:54;;;;;;;;;;;;;;;19.75;100.00;95395.56;1019070;29;20005;-71
2022/06/19 01:30:25;;;;;;;;;;;;;;;19.70;100.00;95388.59;1022814;29;20024;-71
2022/06/19 01:30:56;;;;;;;;;;;;;;;19.68;100.00;95398.00;1026130;28;19976;-71
2022/06/19 01:31:27;;;;;;;;;;;;;;;19.65;100.00;95394.13;1027229;28;19922;-72
2022/06/19 01:31:59;;;;;;;;;;;;;;;19.62;100.00;95396.66;1016922;29;19995;-71
2022/06/19 01:32:30;;;;;;;;;;;;;;;19.66;100.00;95392.25;1019411;29;19919;-70
2022/06/19 01:33:00;;;;;;;;;;;;;;;19.65;100.00;95391.47;1023825;28;19926;-72
2022/06/19 01:33:32;;;;;;;;;;;;;;;19.62;100.00;95396.66;1023843;28;19966;-71
2022/06/19 01:34:03;;;;;;;;;;;;;;;19.58;100.00;95395.72;1027056;28;19914;-71
2022/06/19 01:34:38;;;;;;;;;;;;;;;19.55;100.00;95391.84;1027671;28;19925;-71
2022/06/19 01:35:09;;;;;;;;;;;;;;;19.54;100.00;95398.25;1024653;28;19926;-71
2022/06/19 01:35:41;;;;;;;;;;;;;;;19.52;100.00;95390.63;1027630;28;20340;-69
2022/06/19 01:36:12;;;;;;;;;;;;;;;19.50;100.00;95392.81;1028069;28;19918;-71
2022/06/19 01:36:42;;;;;;;;;;;;;;;19.47;100.00;95406.78;1031050;28;19945;-71
2022/06/19 01:37:24;;;;;;;;;;;;;;;19.44;100.00;95404.78;1027533;28;19930;-72
2022/06/19 01:37:55;;;;;;;;;;;;;;;19.39;100.00;95398.91;1029146;28;20372;-71
2022/06/19 01:38:25;;;;;;;;;;;;;;;19.41;100.00;95397.44;1031389;28;19914;-71
2022/06/19 01:38:55;;;;;;;;;;;;;;;19.38;100.00;95406.06;1028647;28;19969;-71
2022/06/19 01:39:25;;;;;;;;;;;;;;;19.37;100.00;95401.88;1033523;28;19967;-71
2022/06/19 01:40:00;;;;;;;;;;;;;;;19.33;100.00;95395.66;1034956;28;19940;-71
2022/06/19 01:40:31;;;;;;;;;;;;;;;19.31;100.00;95401.31;1031153;28;19912;-72
2022/06/19 01:41:04;;;;;;;;;;;;;;;19.26;100.00;95404.16;1031021;28;19925;-71
2022/06/19 01:41:36;;;;;;;;;;;;;;;19.30;100.00;95401.63;1031268;28;19968;-71
2022/06/19 01:42:07;;;;;;;;;;;;;;;19.26;100.00;95401.50;1026474;28;19925;-71
2022/06/19 01:42:38;;;;;;;;;;;;;;;19.25;100.00;95399.94;1025185;28;19919;-72
2022/06/19 01:43:09;;;;;;;;;;;;;;;19.21;100.00;95393.69;1031557;28;19933;-70
2022/06/19 01:43:39;;;;;;;;;;;;;;;19.29;100.00;95400.06;1027864;28;19918;-71
2022/06/19 01:44:09;;;;;;;;;;;;;;;19.33;100.00;95398.31;1030978;28;19918;-69
2022/06/19 01:44:40;;;;;;;;;;;;;;;19.30;100.00;95396.28;1035403;28;19920;-71
2022/06/19 01:45:10;;;;;;;;;;;;;;;19.29;100.00;95389.44;1031418;28;19917;-71
2022/06/19 01:45:41;;;;;;;;;;;;;;;19.29;100.00;95392.09;1039379;28;20008;-72
2022/06/19 01:46:12;;;;;;;;;;;;;;;19.30;100.00;95396.28;1039052;28;20425;-72
2022/06/19 01:46:42;;;;;;;;;;;;;;;19.28;100.00;95396.63;1035060;28;20371;-73
2022/06/19 01:47:14;;;;;;;;;;;;;;;19.28;100.00;95398.50;1027128;28;19984;-71
2022/06/19 01:47:44;;;;;;;;;;;;;;;19.27;100.00;95381.75;1027310;28;19917;-71
2022/06/19 01:48:15;;;;;;;;;;;;;;;19.29;100.00;95392.09;1027311;28;19914;-72
2022/06/19 01:48:45;;;;;;;;;;;;;;;19.31;100.00;95381.88;1027251;28;20029;-71
2022/06/19 01:49:15;;;;;;;;;;;;;;;19.35;100.00;95382.00;1026953;28;19937;-71
2022/06/19 01:49:46;;;;;;;;;;;;;;;19.33;100.00;95379.69;1035239;28;20326;-71
2022/06/19 01:50:19;;;;;;;;;;;;;;;19.35;100.00;95385.47;1031112;28;19917;-71
2022/06/19 01:50:49;;;;;;;;;;;;;;;19.36;100.00;95373.72;1027430;28;19910;-71
2022/06/19 01:51:20;;;;;;;;;;;;;;;19.34;100.00;95381.22;1023981;28;19982;-70
2022/06/19 01:51:50;;;;;;;;;;;;;;;19.34;100.00;95375.91;1019654;29;19911;-69
2022/06/19 01:52:20;;;;;;;;;;;;;;;19.31;100.00;95376.56;1022558;28;20000;-71
2022/06/19 01:52:55;;;;;;;;;;;;;;;19.28;100.00;95379.88;1024738;28;20344;-71
2022/06/19 01:53:27;;;;;;;;;;;;;;;19.29;100.00;95378.78;1030682;28;20340;-71
2022/06/19 01:53:58;;;;;;;;;;;;;;;19.27;100.00;95375.66;1029999;28;20005;-72
2022/06/19 01:54:31;;;;;;;;;;;;;;;19.24;100.00;95379.75;1023221;28;19985;-71
2022/06/19 01:55:01;;;;;;;;;;;;;;;19.24;100.00;95376.31;1023223;28;19911;-71
2022/06/19 01:55:32;;;;;;;;;;;;;;;19.24;100.00;95371.00;1024073;28;19911;-71
2022/06/19 01:56:05;;;;;;;;;;;;;;;19.21;100.00;95377.72;1028616;28;19914;-72
2022/06/19 01:56:35;;;;;;;;;;;;;;;19.23;100.00;95377.44;1027277;28;19985;-71
2022/06/19 01:57:06;;;;;;;;;;;;;;;19.19;100.00;95371.22;1019296;29;19921;-71
2022/06/19 01:57:39;;;;;;;;;;;;;;;19.18;100.00;95372.28;1019791;29;19915;-71
2022/06/19 01:58:09;;;;;;;;;;;;;;;19.19;100.00;95368.53;1019557;29;19922;-70
2022/06/19 01:58:40;;;;;;;;;;;;;;;19.17;100.00;95373.41;1020098;28;19965;-71
2022/06/19 01:59:10;;;;;;;;;;;;;;;19.16;100.00;95363.88;1020004;29;20306;-71
2022/06/19 01:59:41;;;;;;;;;;;;;;;19.14;100.00;95366.06;1019449;29;19970;-70
2022/06/19 02:00:13;;;;;;;;;;;;;;;19.14;100.00;95364.19;1019866;29;19918;-71
2022/06/19 02:00:45;;;;;;;;;;;;;;;19.12;100.00;95368.31;1023930;28;19922;-72
2022/06/19 02:01:15;;;;;;;;;;;;;;;19.10;100.00;95365.19;1029447;28;19946;-72
2022/06/19 02:01:46;;;;;;;;;;;;;;;19.05;100.00;95361.63;1031619;28;20387;-70
2022/06/19 02:02:16;;;;;;;;;;;;;;;19.01;100.00;95366.03;1027167;28;19997;-71
2022/06/19 02:02:51;;;;;;;;;;;;;;;19.01;100.00;95362.56;1031513;28;20129;-71
2022/06/19 02:03:21;;;;;;;;;;;;;;;19.00;100.00;95361.81;1032289;28;19925;-72
2022/06/19 02:03:54;;;;;;;;;;;;;;;18.97;100.00;95361.69;1036213;28;20016;-71
2022/06/19 02:04:25;;;;;;;;;;;;;;;18.99;100.00;95357.59;1039680;28;19917;-72
2022/06/19 02:04:55;;;;;;;;;;;;;;;19.02;100.00;95359.59;1031616;28;19917;-71
2022/06/19 02:05:26;;;;;;;;;;;;;;;19.04;100.00;95356.59;1031633;28;19924;-71
2022/06/19 02:05:57;;;;;;;;;;;;;;;19.03;100.00;95355.84;1027535;28;19915;-71
2022/06/19 02:06:28;;;;;;;;;;;;;;;19.06;100.00;95355.19;1019192;28;19960;-71
2022/06/19 02:07:03;;;;;;;;;;;;;;;19.04;100.00;95357.38;1023132;28;19963;-72
2022/06/19 02:07:33;;;;;;;;;;;;;;;19.08;100.00;95349.56;1020189;29;20377;-73
2022/06/19 02:08:04;;;;;;;;;;;;;;;19.11;100.00;95356.84;1016954;29;19958;-72
2022/06/19 02:08:34;;;;;;;;;;;;;;;19.08;100.00;95355.66;1024073;28;20388;-71
2022/06/19 02:09:05;;;;;;;;;;;;;;;19.07;100.00;95351.41;1027664;28;19914;-71
2022/06/19 02:09:35;;;;;;;;;;;;;;;19.10;100.00;95349.22;1031679;28;19917;-73
2022/06/19 02:10:06;;;;;;;;;;;;;;;19.13;100.00;95352.00;1039197;28;19927;-72
2022/06/19 02:10:36;;;;;;;;;;;;;;;19.14;100.00;95358.88;1035677;28;19922;-71
2022/06/19 02:11:07;;;;;;;;;;;;;;;19.15;100.00;95354.31;1031364;28;19925;-71
2022/06/19 02:11:37;;;;;;;;;;;;;;;19.15;100.00;95346.34;1031322;28;19913;-72
2022/06/19 02:12:08;;;;;;;;;;;;;;;19.11;100.00;95353.44;1026854;28;19922;-73
2022/06/19 02:12:38;;;;;;;;;;;;;;;19.13;100.00;95349.34;1023603;28;20348;-71
2022/06/19 02:13:09;;;;;;;;;;;;;;;19.13;100.00;95351.22;1023228;29;20376;-70
2022/06/19 02:13:39;;;;;;;;;;;;;;;19.15;100.00;95346.34;1019640;29;19950;-72
2022/06/19 02:14:09;;;;;;;;;;;;;;;19.12;100.00;95355.78;1023574;28;19918;-70
2022/06/19 02:14:40;;;;;;;;;;;;;;;19.12;100.00;95344.34;1027622;28;19918;-71
2022/06/19 02:15:10;;;;;;;;;;;;;;;19.15;100.00;95351.66;1031343;28;19945;-70
2022/06/19 02:15:41;;;;;;;;;;;;;;;19.15;100.00;95346.34;1035437;28;20314;-71
2022/06/19 02:16:12;;;;;;;;;;;;;;;19.18;100.00;95351.00;1031483;28;19961;-71
2022/06/19 02:16:43;;;;;;;;;;;;;;;19.12;100.00;95353.13;1032861;28;19921;-71
2022/06/19 02:17:15;;;;;;;;;;;;;;;19.12;100.00;95352.34;1031735;28;20391;-70
2022/06/19 02:17:49;;;;;;;;;;;;;;;19.10;100.00;95349.22;1027392;28;19925;-71
2022/06/19 02:18:23;;;;;;;;;;;;;;;19.08;100.00;95342.34;1024819;28;20407;-71
2022/06/19 02:18:53;;;;;;;;;;;;;;;19.08;100.00;95353.00;1029367;28;20177;-71
2022/06/19 02:19:24;;;;;;;;;;;;;;;19.14;100.00;95339.47;1031592;28;19922;-72
2022/06/19 02:19:54;;;;;;;;;;;;;;;19.10;100.00;95343.91;1031243;28;19926;-71
2022/06/19 02:20:24;;;;;;;;;;;;;;;19.04;100.00;95341.44;1027500;28;20340;-71
2022/06/19 02:20:55;;;;;;;;;;;;;;;19.02;100.00;95343.66;1031522;28;19949;-71
2022/06/19 02:21:38;;;;;;;;;;;;;;;19.01;100.00;95343.97;1027644;28;19922;-71
2022/06/19 02:22:10;;;;;;;;;;;;;;;19.05;100.00;95337.69;1029377;28;19953;-71
2022/06/19 02:22:40;;;;;;;;;;;;;;;19.02;100.00;95337.56;1037375;28;19920;-71
2022/06/19 02:23:11;;;;;;;;;;;;;;;19.01;100.00;95339.44;1039669;28;19928;-72
2022/06/19 02:23:41;;;;;;;;;;;;;;;19.06;100.00;95344.53;1039728;28;20474;-71
2022/06/19 02:24:12;;;;;;;;;;;;;;;19.10;100.00;95331.38;1039448;28;19919;-73
2022/06/19 02:24:43;;;;;;;;;;;;;;;19.11;100.00;95334.81;1039704;28;20012;-71
2022/06/19 02:25:13;;;;;;;;;;;;;;;19.07;100.00;95330.13;1039742;28;19923;-70
2022/06/19 02:25:44;;;;;;;;;;;;;;;19.14;100.00;95326.19;1039511;28;19917;-73
2022/06/19 02:26:14;;;;;;;;;;;;;;;19.17;100.00;95322.88;1031491;28;19925;-71
2022/06/19 02:26:45;;;;;;;;;;;;;;;19.19;100.00;95323.31;1027562;28;19944;-71
2022/06/19 02:27:15;;;;;;;;;;;;;;;19.19;100.00;95326.00;1027452;28;19929;-71
2022/06/19 02:27:45;;;;;;;;;;;;;;;19.16;100.00;95327.41;1031561;28;19918;-71
2022/06/19 02:28:16;;;;;;;;;;;;;;;19.15;100.00;95325.06;1035565;28;19917;-73
2022/06/19 02:28:48;;;;;;;;;;;;;;;19.13;100.00;95322.75;1039670;28;19921;-71
2022/06/19 02:29:19;;;;;;;;;;;;;;;19.10;100.00;95323.41;1031537;28;20450;-71
2022/06/19 02:29:49;;;;;;;;;;;;;;;19.11;100.00;95321.50;1027780;28;20401;-70
2022/06/19 02:30:20;;;;;;;;;;;;;;;19.10;100.00;95322.63;1027595;28;20371;-72
2022/06/19 02:30:50;;;;;;;;;;;;;;;19.04;100.00;95330.78;1027348;28;19922;-71
2022/06/19 02:31:20;;;;;;;;;;;;;;;19.02;100.00;95332.25;1035652;28;19924;-71
2022/06/19 02:31:51;;;;;;;;;;;;;;;19.01;100.00;95334.13;1031523;28;19922;-72
2022/06/19 02:32:22;;;;;;;;;;;;;;;19.01;100.00;95335.97;1034656;28;19965;-71
2022/06/19 02:32:52;;;;;;;;;;;;;;;19.02;100.00;95327.69;1035677;28;19918;-72
2022/06/19 02:33:27;;;;;;;;;;;;;;;19.01;100.00;95335.97;1031578;28;19913;-71
2022/06/19 02:33:58;;;;;;;;;;;;;;;19.01;100.00;95342.09;1027150;28;19954;-71
2022/06/19 02:34:28;;;;;;;;;;;;;;;18.98;100.00;95336.63;1024087;28;19930;-70
2022/06/19 02:34:59;;;;;;;;;;;;;;;18.95;100.00;95340.75;1028208;28;20008;-72
2022/06/19 02:35:29;;;;;;;;;;;;;;;18.97;100.00;95341.19;1031827;28;20403;-71
2022/06/19 02:36:22;;;;;;;;;;;;;;;18.97;100.00;95335.84;1034641;28;19914;-71
2022/06/19 02:36:56;;;;;;;;;;;;;;;18.89;100.00;95333.28;1035346;28;20072;-72
2022/06/19 02:37:27;;;;;;;;;;;;;;;18.85;100.00;95335.81;1035370;28;19916;-72
2022/06/19 02:37:57;;;;;;;;;;;;;;;18.83;100.00;95336.13;1034963;28;19920;-71
2022/06/19 02:38:27;;;;;;;;;;;;;;;18.81;100.00;95329.56;1035558;28;19914;-71
2022/06/19 02:38:58;;;;;;;;;;;;;;;18.78;100.00;95330.25;1035554;28;19913;-70
2022/06/19 02:39:34;;;;;;;;;;;;;;;18.76;100.00;95325.25;1031374;28;19956;-72
2022/06/19 02:40:13;;;;;;;;;;;;;;;18.71;100.00;95332.59;1031363;28;19914;-71
2022/06/19 02:40:46;;;;;;;;;;;;;;;18.68;100.00;95327.91;1033534;28;19910;-71
2022/06/19 02:41:18;;;;;;;;;;;;;;;18.67;100.00;95337.00;1037948;28;19913;-71
2022/06/19 02:41:51;;;;;;;;;;;;;;;18.63;100.00;95333.44;1037266;28;20008;-71
2022/06/19 02:42:38;;;;;;;;;;;;;;;18.61;100.00;95336.41;1030783;28;19921;-71
2022/06/19 02:43:10;;;;;;;;;;;;;;;18.56;100.00;95337.38;1027246;28;19921;-71
2022/06/19 02:43:41;;;;;;;;;;;;;;;18.54;100.00;95328.97;1023525;29;19917;-71